createdAt,value
2017-05-19T00:00:09.003Z,18.13
2017-05-19T00:00:28.400Z,18.11
2017-05-19T00:00:47.746Z,18.13
2017-05-19T00:01:06.573Z,18.14
2017-05-19T00:01:25.382Z,18.11
2017-05-19T00:01:44.156Z,18.14
2017-05-19T00:02:03.467Z,18.14
2017-05-19T00:02:22.793Z,18.16
2017-05-19T00:02:42.095Z,18.18
2017-05-19T00:03:01.401Z,18.18
2017-05-19T00:03:20.154Z,18.11
2017-05-19T00:03:39.459Z,18.07
2017-05-19T00:03:58.752Z,18.06
2017-05-19T00:04:18.021Z,18.07
2017-05-19T00:04:37.270Z,18.09
2017-05-19T00:04:56.560Z,18.11
2017-05-19T00:05:15.378Z,18.1
2017-05-19T00:05:34.749Z,18.14
2017-05-19T00:05:54.161Z,18.16
2017-05-19T00:06:12.934Z,18.16
2017-05-19T00:06:32.199Z,18.16
2017-05-19T00:06:51.500Z,18.18
2017-05-19T00:07:10.285Z,18.22
2017-05-19T00:07:29.081Z,18.19
2017-05-19T00:07:47.883Z,18.22
2017-05-19T00:08:06.668Z,18.27
2017-05-19T00:08:24.955Z,18.18
2017-05-19T00:08:43.230Z,18.24
2017-05-19T00:09:02.522Z,18.22
2017-05-19T00:09:21.781Z,18.18
2017-05-19T00:09:40.539Z,18.27
2017-05-19T00:09:59.826Z,18.11
2017-05-19T00:10:18.592Z,18.16
2017-05-19T00:10:37.375Z,18.16
2017-05-19T00:10:56.177Z,18.18
2017-05-19T00:11:15.452Z,18.1
2017-05-19T00:11:34.731Z,18.21
2017-05-19T00:11:53.495Z,18.13
2017-05-19T00:12:11.768Z,18.18
2017-05-19T00:12:30.509Z,18.1
2017-05-19T00:12:49.801Z,18.21
2017-05-19T00:13:09.080Z,18.21
2017-05-19T00:13:27.850Z,18.16
2017-05-19T00:13:46.141Z,18.07
2017-05-19T00:14:05.372Z,18.03
2017-05-19T00:14:23.636Z,18.07
2017-05-19T00:14:42.965Z,18.14
2017-05-19T00:15:01.772Z,18.11
2017-05-19T00:15:20.747Z,18.1
2017-05-19T00:15:40.019Z,18.07
2017-05-19T00:15:59.330Z,18.06
2017-05-19T00:16:18.096Z,18.04
2017-05-19T00:16:37.388Z,18.06
2017-05-19T00:16:56.140Z,18.06
2017-05-19T00:17:14.913Z,18.03
2017-05-19T00:17:34.200Z,18.06
2017-05-19T00:17:53.480Z,18.07
2017-05-19T00:18:12.224Z,18.14
2017-05-19T00:18:29.976Z,18.11
2017-05-19T00:18:49.251Z,18.03
2017-05-19T00:19:08.526Z,18.03
2017-05-19T00:19:26.322Z,18.06
2017-05-19T00:19:45.732Z,18.1
2017-05-19T00:20:05.000Z,17.98
2017-05-19T00:20:24.070Z,17.95
2017-05-19T00:20:43.373Z,18.11
2017-05-19T00:21:02.625Z,18.06
2017-05-19T00:21:21.398Z,18.02
2017-05-19T00:21:40.719Z,18.07
2017-05-19T00:21:58.950Z,18.09
2017-05-19T00:22:18.230Z,18.09
2017-05-19T00:22:36.993Z,18.03
2017-05-19T00:22:56.275Z,18.11
2017-05-19T00:23:15.610Z,18.09
2017-05-19T00:23:34.932Z,18.09
2017-05-19T00:23:54.221Z,18.11
2017-05-19T00:24:13.513Z,18.11
2017-05-19T00:24:32.279Z,17.95
2017-05-19T00:24:51.550Z,18.13
2017-05-19T00:25:10.783Z,18.02
2017-05-19T00:25:30.168Z,18.07
2017-05-19T00:25:49.460Z,17.98
2017-05-19T00:26:08.186Z,18.09
2017-05-19T00:26:26.435Z,18.04
2017-05-19T00:26:45.712Z,18.02
2017-05-19T00:27:05.011Z,18.02
2017-05-19T00:27:24.284Z,18.06
2017-05-19T00:27:43.041Z,18.11
2017-05-19T00:28:02.317Z,18.06
2017-05-19T00:28:21.049Z,18.1
2017-05-19T00:28:39.831Z,17.98
2017-05-19T00:28:59.132Z,18.09
2017-05-19T00:29:18.426Z,18.02
2017-05-19T00:29:37.172Z,17.95
2017-05-19T00:29:56.479Z,17.98
2017-05-19T00:30:15.227Z,17.94
2017-05-19T00:30:34.512Z,17.98
2017-05-19T00:30:53.799Z,18.02
2017-05-19T00:31:11.567Z,18.11
2017-05-19T00:31:31.064Z,17.98
2017-05-19T00:31:50.362Z,18.06
2017-05-19T00:32:09.127Z,18.09
2017-05-19T00:32:27.905Z,18.07
2017-05-19T00:32:46.160Z,17.98
2017-05-19T00:33:05.454Z,17.96
2017-05-19T00:33:24.805Z,17.95
2017-05-19T00:33:43.563Z,18.02
2017-05-19T00:34:02.837Z,18.09
2017-05-19T00:34:21.707Z,18.07
2017-05-19T00:34:41.010Z,18.04
2017-05-19T00:35:00.312Z,18.02
2017-05-19T00:35:19.066Z,17.96
2017-05-19T00:35:37.814Z,17.98
2017-05-19T00:35:57.098Z,18.03
2017-05-19T00:36:15.875Z,17.95
2017-05-19T00:36:35.134Z,17.96
2017-05-19T00:36:54.509Z,18.06
2017-05-19T00:37:13.785Z,18.06
2017-05-19T00:37:32.539Z,18.09
2017-05-19T00:37:51.796Z,18.02
2017-05-19T00:38:11.073Z,18
2017-05-19T00:38:29.876Z,18.09
2017-05-19T00:38:49.172Z,18.1
2017-05-19T00:39:07.925Z,18.11
2017-05-19T00:39:27.232Z,18.09
2017-05-19T00:39:46.012Z,18.11
2017-05-19T00:40:05.290Z,18.13
2017-05-19T00:40:24.781Z,18.13
2017-05-19T00:40:43.053Z,18.1
2017-05-19T00:41:02.326Z,18.11
2017-05-19T00:41:21.594Z,18.09
2017-05-19T00:41:40.853Z,18.1
2017-05-19T00:42:00.149Z,18.13
2017-05-19T00:42:18.406Z,18.11
2017-05-19T00:42:37.157Z,18.09
2017-05-19T00:42:56.473Z,18.06
2017-05-19T00:43:15.242Z,18.11
2017-05-19T00:43:33.986Z,18.06
2017-05-19T00:43:53.288Z,18.1
2017-05-19T00:44:11.561Z,18.06
2017-05-19T00:44:30.427Z,18.09
2017-05-19T00:44:49.696Z,18.04
2017-05-19T00:45:08.529Z,18.09
2017-05-19T00:45:27.500Z,18.13
2017-05-19T00:45:46.269Z,18.1
2017-05-19T00:46:05.032Z,18.07
2017-05-19T00:46:24.356Z,17.96
2017-05-19T00:46:42.674Z,17.94
2017-05-19T00:47:02.130Z,17.94
2017-05-19T00:47:21.468Z,17.92
2017-05-19T00:47:40.788Z,18.03
2017-05-19T00:48:00.187Z,17.89
2017-05-19T00:48:18.480Z,17.92
2017-05-19T00:48:37.802Z,17.96
2017-05-19T00:48:56.612Z,18.02
2017-05-19T00:49:15.357Z,17.88
2017-05-19T00:49:34.661Z,17.94
2017-05-19T00:49:53.978Z,17.94
2017-05-19T00:50:13.289Z,17.96
2017-05-19T00:50:32.215Z,17.89
2017-05-19T00:50:51.534Z,17.95
2017-05-19T00:51:10.311Z,17.96
2017-05-19T00:51:28.090Z,17.91
2017-05-19T00:51:47.415Z,17.95
2017-05-19T00:52:06.169Z,18.02
2017-05-19T00:52:24.941Z,17.89
2017-05-19T00:52:44.205Z,17.89
2017-05-19T00:53:03.527Z,17.98
2017-05-19T00:53:22.864Z,17.96
2017-05-19T00:53:42.160Z,17.95
2017-05-19T00:54:01.430Z,17.98
2017-05-19T00:54:20.237Z,17.95
2017-05-19T00:54:39.488Z,17.95
2017-05-19T00:54:58.768Z,17.95
2017-05-19T00:55:18.062Z,17.87
2017-05-19T00:55:37.345Z,17.92
2017-05-19T00:55:56.623Z,17.89
2017-05-19T00:56:15.349Z,17.89
2017-05-19T00:56:34.090Z,17.95
2017-05-19T00:56:52.874Z,17.96
2017-05-19T00:57:12.187Z,17.85
2017-05-19T00:57:30.468Z,17.95
2017-05-19T00:57:49.803Z,17.92
2017-05-19T00:58:08.548Z,17.91
2017-05-19T00:58:26.811Z,17.87
2017-05-19T00:58:46.177Z,17.92
2017-05-19T00:59:05.496Z,17.91
2017-05-19T00:59:24.835Z,17.95
2017-05-19T00:59:43.150Z,17.91
2017-05-19T01:00:02.442Z,17.89
2017-05-19T01:00:21.756Z,17.91
2017-05-19T01:00:40.538Z,17.88
2017-05-19T01:01:07.151Z,17.94
2017-05-19T01:01:26.416Z,17.94
2017-05-19T01:01:45.735Z,17.91
2017-05-19T01:02:04.528Z,17.87
2017-05-19T01:02:23.360Z,17.92
2017-05-19T01:02:42.194Z,17.95
2017-05-19T01:03:01.531Z,17.95
2017-05-19T01:03:20.331Z,17.94
2017-05-19T01:03:39.615Z,17.85
2017-05-19T01:03:57.968Z,17.92
2017-05-19T01:04:17.312Z,17.98
2017-05-19T01:04:36.177Z,18
2017-05-19T01:04:55.477Z,17.87
2017-05-19T01:05:13.722Z,17.84
2017-05-19T01:05:33.004Z,18
2017-05-19T01:05:52.631Z,17.91
2017-05-19T01:06:11.404Z,17.95
2017-05-19T01:06:29.654Z,17.92
2017-05-19T01:06:48.467Z,18
2017-05-19T01:07:07.948Z,17.95
2017-05-19T01:07:27.413Z,17.98
2017-05-19T01:07:47.196Z,17.95
2017-05-19T01:08:06.681Z,17.91
2017-05-19T01:08:27.082Z,17.92
2017-05-19T01:08:46.396Z,17.91
2017-05-19T01:09:05.672Z,17.95
2017-05-19T01:09:25.026Z,17.95
2017-05-19T01:09:43.785Z,17.92
2017-05-19T01:10:03.094Z,18.11
2017-05-19T01:10:22.060Z,17.98
2017-05-19T01:10:40.826Z,18.02
2017-05-19T01:11:00.154Z,18.14
2017-05-19T01:11:18.922Z,18.04
2017-05-19T01:11:38.219Z,18.09
2017-05-19T01:11:57.552Z,18.04
2017-05-19T01:12:16.855Z,18.1
2017-05-19T01:12:36.149Z,18.09
2017-05-19T01:12:55.519Z,18.1
2017-05-19T01:13:14.336Z,18.1
2017-05-19T01:13:33.665Z,18
2017-05-19T01:13:52.968Z,18.04
2017-05-19T01:14:12.237Z,18.04
2017-05-19T01:14:29.971Z,18.11
2017-05-19T01:14:49.269Z,18.09
2017-05-19T01:15:08.540Z,18.04
2017-05-19T01:15:27.954Z,17.96
2017-05-19T01:15:47.256Z,17.92
2017-05-19T01:16:07.431Z,17.98
2017-05-19T01:16:27.379Z,17.98
2017-05-19T01:16:46.240Z,17.98
2017-05-19T01:17:05.194Z,17.91
2017-05-19T01:17:23.988Z,18.02
2017-05-19T01:17:42.824Z,17.94
2017-05-19T01:18:02.139Z,18.02
2017-05-19T01:18:21.459Z,17.98
2017-05-19T01:18:40.799Z,17.96
2017-05-19T01:19:00.096Z,17.95
2017-05-19T01:19:18.347Z,18.11
2017-05-19T01:19:37.697Z,17.96
2017-05-19T01:19:57.039Z,18
2017-05-19T01:20:15.889Z,18.11
2017-05-19T01:20:35.465Z,18.02
2017-05-19T01:20:54.998Z,17.98
2017-05-19T01:21:14.254Z,18.09
2017-05-19T01:21:32.482Z,18.09
2017-05-19T01:21:51.775Z,18.14
2017-05-19T01:22:10.589Z,17.96
2017-05-19T01:22:29.381Z,18.1
2017-05-19T01:22:49.969Z,18.13
2017-05-19T01:23:09.269Z,18
2017-05-19T01:23:28.566Z,18
2017-05-19T01:23:47.417Z,18.07
2017-05-19T01:24:06.768Z,18.09
2017-05-19T01:24:25.211Z,18.11
2017-05-19T01:24:44.700Z,18.04
2017-05-19T01:25:03.527Z,17.98
2017-05-19T01:25:22.485Z,18.11
2017-05-19T01:25:41.788Z,18.1
2017-05-19T01:26:01.094Z,18.11
2017-05-19T01:26:20.383Z,18.02
2017-05-19T01:26:39.692Z,18.02
2017-05-19T01:26:59.047Z,18.06
2017-05-19T01:27:18.354Z,18.09
2017-05-19T01:27:37.629Z,17.96
2017-05-19T01:27:57.084Z,17.94
2017-05-19T01:28:15.877Z,18.04
2017-05-19T01:28:34.673Z,17.95
2017-05-19T01:28:53.963Z,17.92
2017-05-19T01:29:13.282Z,17.91
2017-05-19T01:29:32.078Z,17.98
2017-05-19T01:29:51.390Z,17.95
2017-05-19T01:30:10.182Z,17.92
2017-05-19T01:30:29.726Z,17.95
2017-05-19T01:30:49.041Z,17.96
2017-05-19T01:31:08.341Z,17.95
2017-05-19T01:31:26.567Z,17.95
2017-05-19T01:31:45.866Z,17.92
2017-05-19T01:32:05.160Z,17.96
2017-05-19T01:32:24.016Z,17.95
2017-05-19T01:32:43.394Z,17.96
2017-05-19T01:33:02.750Z,17.92
2017-05-19T01:33:21.519Z,18.02
2017-05-19T01:33:40.760Z,17.95
2017-05-19T01:33:59.619Z,17.96
2017-05-19T01:34:18.396Z,18.02
2017-05-19T01:34:37.702Z,17.89
2017-05-19T01:34:56.558Z,17.95
2017-05-19T01:35:15.373Z,18
2017-05-19T01:35:34.656Z,17.94
2017-05-19T01:35:53.442Z,17.92
2017-05-19T01:36:12.751Z,17.98
2017-05-19T01:36:32.126Z,17.95
2017-05-19T01:36:51.453Z,17.94
2017-05-19T01:37:10.797Z,17.98
2017-05-19T01:37:29.570Z,17.92
2017-05-19T01:37:47.787Z,17.95
2017-05-19T01:38:06.551Z,17.96
2017-05-19T01:38:24.828Z,17.95
2017-05-19T01:38:43.623Z,17.91
2017-05-19T01:39:02.895Z,17.96
2017-05-19T01:39:21.685Z,18
2017-05-19T01:39:41.052Z,17.94
2017-05-19T01:40:00.787Z,17.92
2017-05-19T01:40:18.746Z,17.96
2017-05-19T01:40:37.650Z,17.96
2017-05-19T01:40:56.497Z,17.95
2017-05-19T01:41:15.845Z,17.94
2017-05-19T01:41:35.204Z,17.95
2017-05-19T01:41:54.507Z,17.89
2017-05-19T01:42:13.323Z,17.96
2017-05-19T01:42:32.159Z,17.94
2017-05-19T01:42:51.501Z,17.95
2017-05-19T01:43:11.125Z,17.91
2017-05-19T01:43:44.600Z,17.92
2017-05-19T01:44:03.651Z,17.82
2017-05-19T01:44:23.229Z,17.91
2017-05-19T01:44:42.022Z,17.92
2017-05-19T01:45:00.337Z,17.94
2017-05-19T01:45:19.671Z,17.95
2017-05-19T01:45:38.989Z,17.95
2017-05-19T01:45:58.365Z,17.92
2017-05-19T01:46:17.724Z,17.85
2017-05-19T01:46:37.018Z,17.85
2017-05-19T01:46:56.322Z,17.94
2017-05-19T01:47:15.130Z,17.85
2017-05-19T01:47:34.416Z,17.92
2017-05-19T01:47:53.687Z,17.95
2017-05-19T01:48:12.995Z,17.94
2017-05-19T01:48:31.788Z,17.91
2017-05-19T01:48:50.595Z,17.95
2017-05-19T01:49:09.861Z,17.89
2017-05-19T01:49:29.141Z,17.87
2017-05-19T01:49:48.488Z,17.92
2017-05-19T01:50:07.912Z,17.96
2017-05-19T01:50:25.756Z,17.92
2017-05-19T01:50:44.497Z,17.89
2017-05-19T01:51:03.278Z,17.89
2017-05-19T01:51:22.853Z,17.98
2017-05-19T01:51:41.018Z,17.91
2017-05-19T01:52:00.405Z,17.92
2017-05-19T01:52:19.303Z,17.94
2017-05-19T01:52:38.171Z,17.84
2017-05-19T01:52:57.471Z,17.84
2017-05-19T01:53:16.286Z,17.89
2017-05-19T01:53:35.811Z,17.95
2017-05-19T01:53:54.737Z,17.88
2017-05-19T01:54:13.554Z,17.89
2017-05-19T01:54:32.842Z,17.94
2017-05-19T01:54:52.152Z,17.94
2017-05-19T01:55:11.559Z,17.88
2017-05-19T01:55:30.906Z,17.94
2017-05-19T01:55:50.205Z,17.91
2017-05-19T01:56:09.481Z,17.92
2017-05-19T01:56:28.833Z,17.91
2017-05-19T01:56:48.149Z,17.89
2017-05-19T01:57:07.460Z,17.95
2017-05-19T01:57:26.764Z,17.92
2017-05-19T01:57:46.151Z,17.92
2017-05-19T01:58:05.532Z,17.98
2017-05-19T01:58:24.901Z,17.88
2017-05-19T01:58:44.286Z,17.94
2017-05-19T01:59:03.616Z,17.95
2017-05-19T01:59:22.936Z,17.84
2017-05-19T01:59:42.303Z,17.94
2017-05-19T02:00:01.615Z,17.95
2017-05-19T02:00:21.123Z,17.98
2017-05-19T02:00:40.401Z,17.92
2017-05-19T02:00:59.741Z,17.95
2017-05-19T02:01:18.520Z,17.94
2017-05-19T02:01:38.101Z,17.94
2017-05-19T02:01:57.675Z,17.89
2017-05-19T02:02:16.949Z,17.91
2017-05-19T02:02:35.702Z,17.94
2017-05-19T02:02:55.015Z,17.91
2017-05-19T02:03:13.771Z,17.94
2017-05-19T02:03:33.390Z,17.88
2017-05-19T02:03:53.153Z,17.96
2017-05-19T02:04:11.908Z,17.94
2017-05-19T02:04:31.186Z,17.95
2017-05-19T02:04:50.491Z,17.92
2017-05-19T02:05:09.773Z,17.94
2017-05-19T02:05:28.590Z,17.92
2017-05-19T02:05:47.696Z,17.87
2017-05-19T02:06:07.131Z,17.92
2017-05-19T02:06:25.876Z,17.95
2017-05-19T02:06:45.161Z,17.95
2017-05-19T02:07:04.454Z,17.92
2017-05-19T02:07:23.234Z,17.95
2017-05-19T02:07:42.553Z,17.94
2017-05-19T02:08:01.855Z,17.94
2017-05-19T02:08:20.616Z,17.95
2017-05-19T02:08:40.252Z,17.85
2017-05-19T02:08:59.348Z,17.92
2017-05-19T02:09:18.141Z,17.94
2017-05-19T02:09:37.494Z,17.92
2017-05-19T02:09:56.252Z,17.92
2017-05-19T02:10:15.935Z,17.85
2017-05-19T02:10:34.719Z,17.85
2017-05-19T02:10:54.037Z,17.98
2017-05-19T02:11:13.357Z,17.85
2017-05-19T02:11:32.201Z,17.92
2017-05-19T02:11:51.520Z,17.89
2017-05-19T02:12:10.784Z,17.87
2017-05-19T02:12:30.068Z,17.84
2017-05-19T02:12:49.371Z,17.87
2017-05-19T02:13:08.687Z,17.88
2017-05-19T02:13:27.953Z,17.85
2017-05-19T02:13:47.299Z,17.85
2017-05-19T02:14:06.613Z,17.85
2017-05-19T02:14:24.908Z,17.91
2017-05-19T02:14:44.225Z,17.87
2017-05-19T02:15:03.558Z,17.88
2017-05-19T02:15:22.931Z,17.88
2017-05-19T02:15:42.203Z,17.91
2017-05-19T02:16:01.504Z,17.82
2017-05-19T02:16:20.743Z,17.67
2017-05-19T02:16:40.006Z,17.87
2017-05-19T02:16:59.364Z,17.89
2017-05-19T02:17:18.131Z,17.88
2017-05-19T02:17:36.901Z,17.79
2017-05-19T02:17:56.193Z,17.84
2017-05-19T02:18:15.539Z,17.84
2017-05-19T02:18:34.862Z,17.81
2017-05-19T02:18:54.188Z,17.67
2017-05-19T02:19:12.957Z,17.82
2017-05-19T02:19:31.242Z,17.82
2017-05-19T02:19:50.553Z,17.74
2017-05-19T02:20:09.859Z,17.81
2017-05-19T02:20:28.120Z,17.81
2017-05-19T02:20:47.358Z,17.84
2017-05-19T02:21:06.678Z,17.88
2017-05-19T02:21:24.959Z,17.91
2017-05-19T02:21:43.759Z,17.92
2017-05-19T02:22:03.026Z,17.84
2017-05-19T02:22:21.257Z,17.88
2017-05-19T02:22:40.018Z,17.88
2017-05-19T02:22:59.311Z,17.84
2017-05-19T02:23:18.617Z,17.84
2017-05-19T02:23:37.867Z,17.88
2017-05-19T02:23:57.170Z,17.85
2017-05-19T02:24:15.453Z,17.85
2017-05-19T02:24:34.716Z,17.87
2017-05-19T02:24:53.986Z,17.88
2017-05-19T02:25:12.780Z,17.88
2017-05-19T02:25:31.076Z,17.87
2017-05-19T02:25:49.864Z,17.87
2017-05-19T02:26:09.242Z,17.81
2017-05-19T02:26:27.996Z,17.76
2017-05-19T02:26:46.745Z,17.77
2017-05-19T02:27:06.061Z,17.69
2017-05-19T02:27:24.817Z,17.74
2017-05-19T02:27:43.638Z,17.79
2017-05-19T02:28:02.979Z,17.69
2017-05-19T02:28:22.245Z,17.77
2017-05-19T02:28:40.524Z,17.67
2017-05-19T02:28:59.756Z,17.74
2017-05-19T02:29:18.530Z,17.74
2017-05-19T02:29:37.760Z,17.66
2017-05-19T02:29:56.536Z,17.74
2017-05-19T02:30:15.837Z,17.74
2017-05-19T02:30:34.597Z,17.73
2017-05-19T02:30:53.878Z,17.74
2017-05-19T02:31:13.178Z,17.73
2017-05-19T02:31:32.504Z,17.85
2017-05-19T02:31:51.782Z,17.76
2017-05-19T02:32:10.581Z,17.82
2017-05-19T02:32:29.885Z,17.71
2017-05-19T02:32:49.202Z,17.74
2017-05-19T02:33:08.460Z,17.69
2017-05-19T02:33:26.672Z,17.73
2017-05-19T02:33:45.997Z,17.76
2017-05-19T02:34:05.284Z,17.84
2017-05-19T02:34:23.997Z,17.85
2017-05-19T02:34:42.227Z,17.69
2017-05-19T02:35:01.534Z,17.71
2017-05-19T02:35:20.956Z,17.7
2017-05-19T02:35:40.227Z,17.74
2017-05-19T02:35:59.471Z,17.66
2017-05-19T02:36:18.810Z,17.73
2017-05-19T02:36:38.167Z,17.84
2017-05-19T02:36:57.484Z,17.74
2017-05-19T02:37:15.786Z,17.77
2017-05-19T02:37:34.532Z,17.81
2017-05-19T02:37:53.808Z,17.76
2017-05-19T02:38:12.071Z,17.7
2017-05-19T02:38:31.366Z,17.77
2017-05-19T02:38:50.647Z,17.81
2017-05-19T02:39:09.959Z,17.73
2017-05-19T02:39:28.725Z,17.73
2017-05-19T02:39:48.021Z,17.69
2017-05-19T02:40:07.352Z,17.67
2017-05-19T02:40:26.152Z,17.82
2017-05-19T02:40:45.409Z,17.69
2017-05-19T02:41:04.676Z,17.7
2017-05-19T02:41:22.437Z,17.76
2017-05-19T02:41:41.173Z,17.76
2017-05-19T02:42:00.440Z,17.84
2017-05-19T02:42:18.691Z,17.77
2017-05-19T02:42:37.958Z,17.79
2017-05-19T02:42:57.228Z,17.7
2017-05-19T02:43:15.972Z,17.76
2017-05-19T02:43:35.250Z,17.69
2017-05-19T02:43:54.523Z,17.76
2017-05-19T02:44:12.806Z,17.76
2017-05-19T02:44:32.136Z,17.74
2017-05-19T02:44:51.438Z,17.69
2017-05-19T02:45:10.223Z,17.67
2017-05-19T02:45:29.105Z,17.67
2017-05-19T02:45:48.440Z,17.67
2017-05-19T02:46:07.812Z,17.64
2017-05-19T02:46:26.750Z,17.58
2017-05-19T02:46:46.120Z,17.66
2017-05-19T02:47:05.403Z,17.57
2017-05-19T02:47:24.175Z,17.64
2017-05-19T02:47:42.929Z,17.58
2017-05-19T02:48:02.259Z,17.6
2017-05-19T02:48:20.503Z,17.55
2017-05-19T02:48:39.766Z,17.53
2017-05-19T02:48:59.035Z,17.58
2017-05-19T02:49:18.338Z,17.57
2017-05-19T02:49:36.612Z,17.53
2017-05-19T02:49:55.935Z,17.57
2017-05-19T02:50:15.392Z,17.5
2017-05-19T02:50:34.167Z,17.54
2017-05-19T02:50:53.551Z,17.53
2017-05-19T02:51:12.894Z,17.5
2017-05-19T02:51:32.209Z,17.57
2017-05-19T02:51:51.545Z,17.53
2017-05-19T02:52:09.787Z,17.51
2017-05-19T02:52:28.060Z,17.5
2017-05-19T02:52:47.356Z,17.5
2017-05-19T02:53:06.144Z,17.54
2017-05-19T02:53:24.913Z,17.54
2017-05-19T02:53:44.194Z,17.51
2017-05-19T02:54:03.485Z,17.48
2017-05-19T02:54:22.720Z,17.54
2017-05-19T02:54:40.970Z,17.51
2017-05-19T02:55:00.254Z,17.48
2017-05-19T02:55:19.055Z,17.47
2017-05-19T02:55:38.343Z,17.5
2017-05-19T02:55:57.640Z,17.48
2017-05-19T02:56:16.451Z,17.48
2017-05-19T02:56:35.734Z,17.47
2017-05-19T02:56:54.989Z,17.38
2017-05-19T02:57:13.235Z,17.38
2017-05-19T02:57:32.035Z,17.43
2017-05-19T02:57:51.337Z,17.4
2017-05-19T02:58:09.638Z,17.47
2017-05-19T02:58:27.911Z,17.38
2017-05-19T02:58:47.188Z,17.39
2017-05-19T02:59:06.446Z,17.36
2017-05-19T02:59:25.711Z,17.38
2017-05-19T02:59:44.992Z,17.47
2017-05-19T03:00:04.317Z,17.43
2017-05-19T03:00:22.900Z,17.4
2017-05-19T03:00:42.233Z,17.33
2017-05-19T03:01:00.995Z,17.38
2017-05-19T03:01:19.799Z,17.36
2017-05-19T03:01:39.136Z,17.32
2017-05-19T03:01:57.949Z,17.38
2017-05-19T03:02:16.715Z,17.38
2017-05-19T03:02:35.927Z,17.4
2017-05-19T03:02:54.689Z,17.48
2017-05-19T03:03:13.927Z,17.43
2017-05-19T03:03:32.715Z,17.39
2017-05-19T03:03:51.517Z,17.38
2017-05-19T03:04:10.266Z,17.38
2017-05-19T03:04:29.039Z,17.38
2017-05-19T03:04:48.346Z,17.3
2017-05-19T03:05:07.083Z,17.28
2017-05-19T03:05:24.987Z,17.29
2017-05-19T03:05:44.290Z,17.28
2017-05-19T03:06:03.027Z,17.28
2017-05-19T03:06:21.808Z,17.3
2017-05-19T03:06:40.581Z,17.4
2017-05-19T03:06:59.900Z,17.4
2017-05-19T03:07:18.678Z,17.38
2017-05-19T03:07:38.005Z,17.32
2017-05-19T03:07:57.284Z,17.38
2017-05-19T03:08:15.524Z,17.35
2017-05-19T03:08:34.302Z,17.32
2017-05-19T03:08:53.590Z,17.35
2017-05-19T03:09:11.842Z,17.36
2017-05-19T03:09:31.102Z,17.43
2017-05-19T03:09:50.376Z,17.38
2017-05-19T03:10:09.176Z,17.43
2017-05-19T03:10:27.410Z,17.39
2017-05-19T03:10:46.162Z,17.3
2017-05-19T03:11:05.451Z,17.28
2017-05-19T03:11:23.670Z,17.29
2017-05-19T03:11:42.961Z,17.32
2017-05-19T03:12:01.741Z,17.25
2017-05-19T03:12:21.026Z,17.28
2017-05-19T03:12:39.747Z,17.25
2017-05-19T03:12:59.020Z,17.33
2017-05-19T03:13:18.300Z,17.25
2017-05-19T03:13:36.550Z,17.36
2017-05-19T03:13:55.782Z,17.25
2017-05-19T03:14:14.545Z,17.25
2017-05-19T03:14:33.867Z,17.32
2017-05-19T03:14:53.144Z,17.26
2017-05-19T03:15:11.922Z,17.28
2017-05-19T03:15:30.882Z,17.3
2017-05-19T03:15:50.133Z,17.29
2017-05-19T03:16:09.437Z,17.3
2017-05-19T03:16:28.732Z,17.29
2017-05-19T03:16:48.000Z,17.2
2017-05-19T03:17:07.276Z,17.38
2017-05-19T03:17:25.538Z,17.29
2017-05-19T03:17:44.836Z,17.32
2017-05-19T03:18:04.143Z,17.33
2017-05-19T03:18:22.398Z,17.35
2017-05-19T03:18:41.182Z,17.3
2017-05-19T03:19:00.436Z,17.25
2017-05-19T03:19:18.673Z,17.29
2017-05-19T03:19:37.922Z,17.23
2017-05-19T03:19:57.208Z,17.32
2017-05-19T03:20:15.462Z,17.28
2017-05-19T03:20:34.239Z,17.3
2017-05-19T03:20:53.701Z,17.29
2017-05-19T03:21:11.955Z,17.3
2017-05-19T03:21:31.279Z,17.29
2017-05-19T03:21:50.554Z,17.29
2017-05-19T03:22:09.294Z,17.33
2017-05-19T03:22:27.551Z,17.35
2017-05-19T03:22:46.809Z,17.35
2017-05-19T03:23:06.132Z,17.3
2017-05-19T03:23:24.940Z,17.32
2017-05-19T03:23:44.216Z,17.3
2017-05-19T03:24:03.497Z,17.26
2017-05-19T03:24:22.792Z,17.32
2017-05-19T03:24:42.097Z,17.23
2017-05-19T03:25:01.368Z,17.3
2017-05-19T03:25:19.604Z,17.23
2017-05-19T03:25:38.387Z,17.32
2017-05-19T03:25:57.706Z,17.3
2017-05-19T03:26:16.994Z,17.23
2017-05-19T03:26:35.793Z,17.23
2017-05-19T03:26:55.084Z,17.28
2017-05-19T03:27:13.843Z,17.28
2017-05-19T03:27:32.620Z,17.21
2017-05-19T03:27:51.891Z,17.32
2017-05-19T03:28:11.184Z,17.26
2017-05-19T03:28:29.405Z,17.3
2017-05-19T03:28:48.178Z,17.23
2017-05-19T03:29:07.521Z,17.3
2017-05-19T03:29:25.764Z,17.23
2017-05-19T03:29:44.532Z,17.23
2017-05-19T03:30:03.844Z,17.23
2017-05-19T03:30:22.621Z,17.32
2017-05-19T03:30:41.706Z,17.26
2017-05-19T03:31:00.966Z,17.25
2017-05-19T03:31:20.260Z,17.35
2017-05-19T03:31:39.546Z,17.3
2017-05-19T03:31:58.804Z,17.28
2017-05-19T03:32:17.550Z,17.32
2017-05-19T03:32:36.825Z,17.26
2017-05-19T03:32:56.102Z,17.29
2017-05-19T03:33:14.900Z,17.23
2017-05-19T03:33:33.677Z,17.3
2017-05-19T03:33:52.967Z,17.26
2017-05-19T03:34:12.229Z,17.29
2017-05-19T03:34:31.002Z,17.29
2017-05-19T03:34:50.255Z,17.25
2017-05-19T03:35:09.083Z,17.21
2017-05-19T03:35:28.432Z,17.11
2017-05-19T03:35:47.191Z,17.17
2017-05-19T03:36:06.492Z,17.15
2017-05-19T03:36:25.785Z,17.11
2017-05-19T03:36:45.093Z,17.17
2017-05-19T03:37:03.878Z,17.26
2017-05-19T03:37:22.091Z,17.3
2017-05-19T03:37:41.389Z,17.18
2017-05-19T03:38:00.647Z,17.13
2017-05-19T03:38:18.905Z,17.25
2017-05-19T03:38:38.198Z,17.23
2017-05-19T03:38:57.462Z,17.23
2017-05-19T03:39:15.688Z,17.25
2017-05-19T03:39:35.029Z,17.21
2017-05-19T03:39:54.361Z,17.15
2017-05-19T03:40:13.596Z,17.14
2017-05-19T03:40:31.991Z,17.21
2017-05-19T03:40:51.258Z,17.03
2017-05-19T03:41:10.561Z,17.13
2017-05-19T03:41:29.921Z,17.05
2017-05-19T03:41:49.229Z,17.13
2017-05-19T03:42:07.993Z,17.13
2017-05-19T03:42:26.733Z,17.13
2017-05-19T03:42:46.006Z,17.03
2017-05-19T03:43:05.340Z,17.11
2017-05-19T03:43:23.589Z,17.1
2017-05-19T03:43:42.842Z,17.1
2017-05-19T03:44:02.112Z,17.15
2017-05-19T03:44:20.889Z,17.05
2017-05-19T03:44:39.146Z,17.15
2017-05-19T03:44:58.446Z,17.1
2017-05-19T03:45:16.715Z,17.11
2017-05-19T03:45:36.263Z,17.03
2017-05-19T03:45:55.535Z,17.1
2017-05-19T03:46:14.296Z,17.05
2017-05-19T03:46:32.078Z,17.03
2017-05-19T03:46:51.371Z,17.14
2017-05-19T03:47:10.635Z,17.14
2017-05-19T03:47:29.369Z,17.13
2017-05-19T03:47:48.681Z,17.1
2017-05-19T03:48:07.971Z,17.03
2017-05-19T03:48:26.735Z,17.05
2017-05-19T03:48:46.021Z,17.1
2017-05-19T03:49:05.284Z,17.03
2017-05-19T03:49:24.544Z,17.15
2017-05-19T03:49:43.816Z,17.07
2017-05-19T03:50:03.071Z,17.1
2017-05-19T03:50:21.819Z,17.1
2017-05-19T03:50:40.556Z,17.13
2017-05-19T03:50:59.815Z,17.14
2017-05-19T03:51:19.127Z,17.18
2017-05-19T03:51:38.405Z,17.11
2017-05-19T03:51:57.680Z,17.13
2017-05-19T03:52:16.953Z,17.07
2017-05-19T03:52:35.708Z,17.1
2017-05-19T03:52:54.488Z,17.14
2017-05-19T03:53:13.791Z,17.07
2017-05-19T03:53:32.089Z,17
2017-05-19T03:53:51.392Z,17.05
2017-05-19T03:54:10.673Z,17.05
2017-05-19T03:54:29.442Z,17
2017-05-19T03:54:47.706Z,17.1
2017-05-19T03:55:06.993Z,17.14
2017-05-19T03:55:25.231Z,17.15
2017-05-19T03:55:44.561Z,17.13
2017-05-19T03:56:03.857Z,17.11
2017-05-19T03:56:22.613Z,17.15
2017-05-19T03:56:41.661Z,17.15
2017-05-19T03:57:00.993Z,17.14
2017-05-19T03:57:20.239Z,17.14
2017-05-19T03:57:39.554Z,17.13
2017-05-19T03:57:58.837Z,17.23
2017-05-19T03:58:18.110Z,17.15
2017-05-19T03:58:36.867Z,17.21
2017-05-19T03:58:56.167Z,17.13
2017-05-19T03:59:14.941Z,17.03
2017-05-19T03:59:33.676Z,17.05
2017-05-19T03:59:52.934Z,17.03
2017-05-19T04:00:11.719Z,17.14
2017-05-19T04:00:30.680Z,17.07
2017-05-19T04:00:49.983Z,17.1
2017-05-19T04:01:09.243Z,17.02
2017-05-19T04:01:27.012Z,17.03
2017-05-19T04:01:46.272Z,17.11
2017-05-19T04:02:04.992Z,17
2017-05-19T04:02:23.767Z,17.03
2017-05-19T04:02:43.084Z,17.05
2017-05-19T04:03:02.352Z,17.03
2017-05-19T04:03:21.116Z,17.08
2017-05-19T04:03:39.934Z,17.11
2017-05-19T04:03:59.238Z,17.05
2017-05-19T04:04:18.556Z,17.14
2017-05-19T04:04:37.351Z,17.07
2017-05-19T04:04:56.668Z,17.05
2017-05-19T04:05:15.458Z,17.15
2017-05-19T04:05:35.050Z,17.07
2017-05-19T04:05:54.328Z,17.08
2017-05-19T04:06:13.125Z,17.05
2017-05-19T04:06:32.468Z,17.14